Bison, SD

10:17 AM MDT on October 23, 2014 (GMT -0600)
Buffalo | Change Station
CLOSE
Current Station
Airport
Location: Buffalo,
Elevation: 3002 ft
Nearby Weather Stations

Elev 3002 ft 45.60 °N, 103.55 °W | Updated 21 minutes ago

Clear
Clear
53 °F
Feels Like 53 °F
N
4
Wind Variable Wind from SW
Gusts 14 mph

Today
High -- | Low -- °F
--% Chance of Precip.
Yesterday
High -- | Low -- °F
Precip. -- in
7:17 AM 5:50 PM
Waning Crescent, 0% visible
Pressure 29.89 in
Visibility -9999.0 miles
Clouds
Dew Point 29 °F
Humidity 40%
Rainfall 0.00 in
Snow Depth Not available.
UV Not available.
Pollen 1.60 out of 12
Air Quality Not available.
Flu Activity Sporadic
METAR K2WX 231556Z AUTO 22003KT 12/M02 A2987 RMK AO1 SLP122 T01171017

More Conditions Fewer Conditions

Pressure 29.89 in
Visibility -9999.0 miles
Clouds
Dew Point 29 °F
Humidity 40%
Rainfall 0.00 in
Snow Depth Not available.
UV Not available.
Pollen 1.60 out of 12
Air Quality Not available.
Flu Activity Sporadic
METAR K2WX 231556Z AUTO 22003KT 12/M02 A2987 RMK AO1 SLP122 T01171017

More Conditions Fewer Conditions

10-Day Weather Forecast

Almanac

Astronomy

Oct. 23, 2014 Rise Set
Actual Time 7:17 AM MDT 5:50 PM MDT
Civil Twilight 6:46 AM MDT 6:20 PM MDT
Nautical Twilight 6:12 AM MDT 6:55 PM MDT
Astronomical Twilight 5:37 AM MDT 7:29 PM MDT
Moon 6:57 AM MDT 5:53 PM MDT
Length of Visible Light 11h 34m
Length of Day
10h 33m
Tomorrow will be 2m 59s shorter.
Waning Crescent, 0% of the Moon is Illuminated
Today
Waning Crescent
Oct 23
New
Oct 30
First Quarter
Nov 6
Full
Nov 14
Last Quarter

Today's Extremes

State Highs State Lows

Community

WunderPhotos

Upload Photos

1,764,290 photos uploaded!

Nearby

Snow Depth

Station Depth Elevation
North Rapid Creek 1 in 6130 ft
Blind Park 0 in 6890 ft

Earthquake Activity

City Distance Mag. Time & Date
No recent earthquake activity has been reported nearby.
Minimum magnitude displayed is 2.5.

Coastal Water Temperatures

Place Temperature
No Stations Reporting

Nearby Weather Stations